Time;durP1;ratioP1;P1;durP2;ratioP2;P2;SDS_P1;SDS_P2;PMS_P1;PMS_P2;Temp;Humidity;BMP_temperature;BMP_pressure;BME280_temperature;BME280_humidity;BME280_pressure;Samples;Min_cycle;Max_cycle;Signal;HPM_P1;HPM_P2
2022/05/09 00:01:29;;;;;;;5.22;1.70;;;;;;;;;;4404348;29;20054;-76
2022/05/09 00:03:40;;;;;;;2.20;1.27;;;;;;;;;;4391167;29;30255;-76
2022/05/09 00:05:50;;;;;;;2.20;1.23;;;;;;;;;;4401651;29;20051;-76
2022/05/09 00:08:00;;;;;;;1.87;1.30;;;;;;;;;;4403709;28;34456;-76
2022/05/09 00:10:13;;;;;;;2.53;1.50;;;;;;;;;;4403623;29;22699;-76
2022/05/09 00:12:23;;;;;;;3.83;1.67;;;;;;;;;;4403388;29;20044;-76
2022/05/09 00:14:34;;;;;;;2.93;1.40;;;;;;;;;;4404077;29;24582;-76
2022/05/09 00:16:44;;;;;;;2.53;1.27;;;;;;;;;;4410492;29;36214;-76
2022/05/09 00:18:55;;;;;;;2.13;1.37;;;;;;;;;;4405228;28;20099;-76
2022/05/09 00:21:05;;;;;;;3.27;1.40;;;;;;;;;;4404391;28;20035;-76
2022/05/09 00:23:16;;;;;;;3.13;1.70;;;;;;;;;;4404889;29;20062;-76
2022/05/09 00:25:27;;;;;;;3.30;1.53;;;;;;;;;;4405672;29;20040;-76
2022/05/09 00:27:38;;;;;;;2.42;1.35;;;;;;;;;;4403782;29;20155;-76
2022/05/09 00:29:48;;;;;;;2.53;1.53;;;;;;;;;;4402281;29;20048;-76
2022/05/09 00:32:00;;;;;;;1.93;1.47;;;;;;;;;;4404109;29;20111;-76
2022/05/09 00:34:11;;;;;;;;;;;;;;;;;;4403095;29;20074;-76
2022/05/09 00:36:21;;;;;;;1.95;1.27;;;;;;;;;;4405818;28;19927;-76
2022/05/09 00:38:32;;;;;;;2.40;1.43;;;;;;;;;;4404402;28;20083;-76
2022/05/09 00:43:31;;;;;;;2.13;1.50;;;;;;;;;;4395649;29;20055;-76
2022/05/09 00:45:42;;;;;;;2.40;1.40;;;;;;;;;;4403287;29;20032;-76
2022/05/09 00:47:52;;;;;;;3.80;1.63;;;;;;;;;;4404649;29;29699;-76
2022/05/09 00:50:05;;;;;;;2.70;1.27;;;;;;;;;;4404111;28;20044;-76
2022/05/09 00:52:31;;;;;;;2.58;1.60;;;;;;;;;;4411818;29;20051;-76
2022/05/09 00:54:48;;;;;;;2.60;1.55;;;;;;;;;;4390828;29;20661;-75
2022/05/09 00:57:07;;;;;;;3.17;1.60;;;;;;;;;;4406687;28;20679;-76
2022/05/09 00:59:18;;;;;;;2.05;1.40;;;;;;;;;;4404378;29;20041;-76
2022/05/09 01:01:28;;;;;;;2.65;1.40;;;;;;;;;;4395975;29;20044;-76
2022/05/09 01:04:06;;;;;;;2.43;1.50;;;;;;;;;;4402805;29;28073;-76
2022/05/09 01:06:17;;;;;;;3.35;1.52;;;;;;;;;;4411771;29;20151;-76
2022/05/09 01:08:27;;;;;;;2.23;1.30;;;;;;;;;;4404749;29;20036;-76
2022/05/09 01:10:41;;;;;;;2.70;1.43;;;;;;;;;;4404401;29;20383;-76
2022/05/09 01:12:51;;;;;;;2.70;1.33;;;;;;;;;;4405750;29;20041;-76
2022/05/09 01:15:09;;;;;;;3.03;1.30;;;;;;;;;;4404859;28;20124;-77
2022/05/09 01:17:22;;;;;;;3.10;1.38;;;;;;;;;;4403647;29;20044;-77
2022/05/09 01:19:40;;;;;;;4.35;1.70;;;;;;;;;;4405672;29;20049;-76
2022/05/09 01:21:51;;;;;;;3.13;1.50;;;;;;;;;;4404828;29;20044;-76
2022/05/09 01:24:03;;;;;;;1.93;1.47;;;;;;;;;;4402457;29;20048;-76
2022/05/09 01:26:13;;;;;;;3.25;1.38;;;;;;;;;;4419219;28;20036;-76
2022/05/09 01:28:24;;;;;;;2.27;1.30;;;;;;;;;;4403399;28;20569;-76
2022/05/09 01:30:46;;;;;;;2.80;1.60;;;;;;;;;;4401572;29;20036;-76
2022/05/09 01:33:05;;;;;;;2.67;1.40;;;;;;;;;;4411279;29;20356;-76
2022/05/09 01:35:21;;;;;;;2.83;1.40;;;;;;;;;;4417230;28;20032;-77
2022/05/09 01:37:32;;;;;;;3.38;1.50;;;;;;;;;;4388440;29;20037;-77
2022/05/09 01:39:43;;;;;;;2.92;1.40;;;;;;;;;;4395118;28;20032;-76
2022/05/09 01:41:53;;;;;;;2.30;1.30;;;;;;;;;;4408309;29;42181;-77
2022/05/09 01:44:05;;;;;;;2.85;1.20;;;;;;;;;;4409757;29;20058;-76
2022/05/09 01:46:21;;;;;;;3.78;1.33;;;;;;;;;;4416675;29;20587;-77
2022/05/09 01:51:01;;;;;;;2.45;1.35;;;;;;;;;;4410027;29;20044;-74
2022/05/09 01:53:11;;;;;;;1.87;1.30;;;;;;;;;;4409925;29;20021;-76
2022/05/09 01:55:22;;;;;;;2.00;1.43;;;;;;;;;;4409554;28;20549;-76
2022/05/09 01:57:33;;;;;;;2.35;1.35;;;;;;;;;;4391802;29;20116;-76
2022/05/09 01:59:44;;;;;;;3.43;1.93;;;;;;;;;;4409199;28;20048;-76
2022/05/09 02:01:57;;;;;;;1.85;1.30;;;;;;;;;;4408384;29;20561;-77
2022/05/09 02:04:07;;;;;;;3.88;1.55;;;;;;;;;;4406651;29;20043;-76
2022/05/09 02:06:19;;;;;;;3.57;1.30;;;;;;;;;;4409789;29;20043;-77
2022/05/09 02:08:30;;;;;;;2.75;1.33;;;;;;;;;;4410873;29;20063;-77
2022/05/09 02:10:41;;;;;;;2.25;1.40;;;;;;;;;;4411029;29;20120;-77
2022/05/09 02:12:52;;;;;;;2.55;1.40;;;;;;;;;;4409268;29;20665;-76
2022/05/09 02:15:03;;;;;;;3.65;1.30;;;;;;;;;;4404937;29;20045;-76
2022/05/09 02:17:14;;;;;;;2.33;1.30;;;;;;;;;;4416855;29;21066;-77
2022/05/09 02:19:25;;;;;;;1.67;1.20;;;;;;;;;;4409770;29;20124;-77
2022/05/09 02:21:35;;;;;;;2.47;1.37;;;;;;;;;;4408388;29;20127;-76
2022/05/09 02:23:46;;;;;;;5.80;1.50;;;;;;;;;;4409365;29;20817;-77
2022/05/09 02:25:56;;;;;;;2.43;1.40;;;;;;;;;;4407994;29;20111;-77
2022/05/09 02:28:09;;;;;;;3.10;1.40;;;;;;;;;;4399353;29;20559;-77
2022/05/09 02:30:19;;;;;;;3.05;1.50;;;;;;;;;;4408693;29;20236;-77
2022/05/09 02:32:29;;;;;;;2.23;1.33;;;;;;;;;;4406486;29;20047;-77
2022/05/09 02:34:40;;;;;;;2.23;1.20;;;;;;;;;;4408964;29;31194;-77
2022/05/09 02:36:51;;;;;;;2.40;1.40;;;;;;;;;;4408701;29;20155;-77
2022/05/09 02:39:01;;;;;;;1.80;1.20;;;;;;;;;;4407613;29;22521;-77
2022/05/09 02:41:12;;;;;;;1.63;1.20;;;;;;;;;;4409333;29;20305;-77
2022/05/09 02:43:22;;;;;;;2.07;1.30;;;;;;;;;;4408463;29;37330;-78
2022/05/09 02:45:33;;;;;;;1.83;1.10;;;;;;;;;;4409085;29;20143;-78
2022/05/09 02:47:44;;;;;;;2.70;1.30;;;;;;;;;;4409662;29;20036;-78
2022/05/09 02:49:54;;;;;;;1.83;1.30;;;;;;;;;;4423549;28;20039;-78
2022/05/09 02:52:05;;;;;;;1.77;1.10;;;;;;;;;;4415400;29;20131;-77
2022/05/09 02:54:15;;;;;;;1.37;1.10;;;;;;;;;;4407163;29;20083;-76
2022/05/09 02:56:27;;;;;;;2.47;1.38;;;;;;;;;;4407304;29;21223;-76
2022/05/09 02:58:37;;;;;;;1.95;1.30;;;;;;;;;;4404945;28;20040;-75
2022/05/09 03:00:47;;;;;;;2.47;1.37;;;;;;;;;;4404990;29;20055;-75
2022/05/09 03:05:27;;;;;;;2.35;1.25;;;;;;;;;;4407110;29;20135;-75
2022/05/09 03:07:38;;;;;;;1.37;1.00;;;;;;;;;;4412955;29;23658;-75
2022/05/09 03:09:51;;;;;;;2.45;1.45;;;;;;;;;;4403597;29;20141;-75
2022/05/09 03:12:03;;;;;;;3.23;1.37;;;;;;;;;;4404797;29;20101;-75
2022/05/09 03:14:13;;;;;;;1.73;1.10;;;;;;;;;;4405289;28;20033;-75
2022/05/09 03:16:24;;;;;;;2.77;1.30;;;;;;;;;;4404463;29;20040;-75
2022/05/09 03:18:34;;;;;;;3.17;1.30;;;;;;;;;;4405396;28;20127;-76
2022/05/09 03:20:45;;;;;;;3.60;1.43;;;;;;;;;;4406602;29;20439;-75
2022/05/09 03:22:56;;;;;;;1.38;1.17;;;;;;;;;;4406557;29;20037;-76
2022/05/09 03:25:07;;;;;;;2.28;1.30;;;;;;;;;;4405059;29;20044;-75
2022/05/09 03:27:17;;;;;;;2.77;1.20;;;;;;;;;;4406548;29;20033;-76
2022/05/09 03:29:28;;;;;;;2.53;1.30;;;;;;;;;;4405634;29;31817;-75
2022/05/09 03:31:39;;;;;;;1.93;1.07;;;;;;;;;;4405851;28;20720;-75
2022/05/09 03:33:49;;;;;;;2.63;1.20;;;;;;;;;;4405893;29;20076;-75
2022/05/09 03:36:01;;;;;;;2.93;1.40;;;;;;;;;;4407134;28;20364;-75
2022/05/09 03:38:12;;;;;;;2.67;1.35;;;;;;;;;;4404914;29;20046;-76
2022/05/09 03:40:22;;;;;;;3.40;1.40;;;;;;;;;;4406754;29;20126;-76
2022/05/09 03:42:33;;;;;;;2.63;1.30;;;;;;;;;;4405319;29;20039;-76
2022/05/09 03:44:43;;;;;;;2.20;1.40;;;;;;;;;;4405254;29;20028;-76
2022/05/09 03:46:54;;;;;;;3.40;1.40;;;;;;;;;;4406816;29;20032;-76
2022/05/09 03:49:05;;;;;;;1.60;1.20;;;;;;;;;;4405065;29;20099;-76
2022/05/09 03:51:15;;;;;;;2.07;1.10;;;;;;;;;;4406817;28;20485;-74
2022/05/09 03:53:26;;;;;;;3.27;1.43;;;;;;;;;;4406119;29;20036;-75
2022/05/09 03:55:36;;;;;;;2.30;1.37;;;;;;;;;;4405828;29;20040;-75
2022/05/09 03:57:55;;;;;;;3.37;1.47;;;;;;;;;;4405125;28;20097;-75
2022/05/09 04:00:07;;;;;;;2.33;1.30;;;;;;;;;;4405629;29;20635;-76
2022/05/09 04:02:25;;;;;;;1.88;1.27;;;;;;;;;;4390406;29;20041;-75
2022/05/09 04:04:36;;;;;;;3.50;1.43;;;;;;;;;;4404921;29;20029;-75
2022/05/09 04:06:49;;;;;;;2.37;1.50;;;;;;;;;;4404874;29;20055;-76
2022/05/09 04:09:00;;;;;;;2.65;1.27;;;;;;;;;;4404504;29;20257;-75
2022/05/09 04:11:10;;;;;;;2.60;1.20;;;;;;;;;;4404353;29;20044;-76
2022/05/09 04:13:21;;;;;;;2.43;1.40;;;;;;;;;;4404763;29;20089;-76
2022/05/09 04:18:00;;;;;;;2.33;1.48;;;;;;;;;;4403134;29;20045;-75
2022/05/09 04:20:11;;;;;;;2.10;1.33;;;;;;;;;;4402690;28;21056;-75
2022/05/09 04:22:25;;;;;;;1.60;1.20;;;;;;;;;;4404381;29;20152;-75
2022/05/09 04:24:35;;;;;;;2.17;1.20;;;;;;;;;;4403404;28;20040;-76
2022/05/09 04:26:46;;;;;;;2.10;1.20;;;;;;;;;;4402293;29;20037;-75
2022/05/09 04:28:57;;;;;;;2.27;1.20;;;;;;;;;;4400798;29;39211;-76
2022/05/09 04:31:07;;;;;;;1.33;1.17;;;;;;;;;;4404847;29;20605;-76
2022/05/09 04:33:18;;;;;;;2.27;1.30;;;;;;;;;;4404116;29;20127;-76
2022/05/09 04:35:29;;;;;;;2.90;1.40;;;;;;;;;;4401168;29;20309;-76
2022/05/09 04:37:42;;;;;;;1.52;1.30;;;;;;;;;;4402895;29;20571;-76
2022/05/09 04:39:54;;;;;;;1.83;1.33;;;;;;;;;;4395526;29;20616;-76
2022/05/09 04:42:05;;;;;;;2.00;1.40;;;;;;;;;;4403743;29;20029;-76
2022/05/09 04:44:15;;;;;;;2.80;1.43;;;;;;;;;;4402612;29;20036;-76
2022/05/09 04:46:26;;;;;;;2.57;1.10;;;;;;;;;;4411656;29;20557;-75
2022/05/09 04:48:38;;;;;;;2.37;1.60;;;;;;;;;;4403756;28;20124;-76
2022/05/09 04:50:48;;;;;;;;;;;;;;;;;;4402678;29;20751;-75
2022/05/09 04:52:59;;;;;;;2.95;1.40;;;;;;;;;;4403076;29;19952;-75
2022/05/09 04:55:11;;;;;;;2.15;1.35;;;;;;;;;;4401589;29;20140;-75
2022/05/09 04:57:21;;;;;;;;;;;;;;;;;;4404686;29;20474;-76
2022/05/09 04:59:32;;;;;;;2.75;1.40;;;;;;;;;;4391714;29;20044;-76
2022/05/09 05:01:42;;;;;;;2.90;1.40;;;;;;;;;;4402515;29;20044;-76
2022/05/09 05:03:52;;;;;;;2.63;1.40;;;;;;;;;;4403663;29;20215;-75
2022/05/09 05:06:04;;;;;;;1.93;1.53;;;;;;;;;;4404161;28;20048;-76
2022/05/09 05:08:15;;;;;;;3.13;1.63;;;;;;;;;;4400837;29;20075;-76
2022/05/09 05:10:27;;;;;;;2.40;1.40;;;;;;;;;;4405618;29;20062;-76
2022/05/09 05:12:37;;;;;;;;;;;;;;;;;;4402568;29;20609;-76
2022/05/09 05:14:48;;;;;;;2.22;1.40;;;;;;;;;;4403293;29;20021;-76
2022/05/09 05:17:01;;;;;;;2.83;1.70;;;;;;;;;;4411692;29;20063;-76
2022/05/09 05:19:11;;;;;;;2.42;1.38;;;;;;;;;;4405433;29;20059;-77
2022/05/09 05:21:22;;;;;;;3.20;1.40;;;;;;;;;;4403529;29;20112;-76
2022/05/09 05:23:32;;;;;;;1.77;1.23;;;;;;;;;;4404415;29;20458;-76
2022/05/09 05:25:45;;;;;;;1.87;1.23;;;;;;;;;;4402876;28;20032;-77
2022/05/09 05:27:57;;;;;;;4.40;1.35;;;;;;;;;;4403469;29;20036;-77
2022/05/09 05:30:09;;;;;;;1.95;1.23;;;;;;;;;;4404206;29;20047;-77
2022/05/09 05:32:34;;;;;;;3.13;1.58;;;;;;;;;;4389966;29;20044;-77
2022/05/09 05:34:45;;;;;;;4.97;1.55;;;;;;;;;;4405885;29;20123;-77
2022/05/09 05:36:55;;;;;;;4.03;1.50;;;;;;;;;;4405314;29;20096;-77
2022/05/09 05:39:07;;;;;;;1.60;1.30;;;;;;;;;;4404975;29;20108;-77
2022/05/09 05:41:19;;;;;;;2.50;1.27;;;;;;;;;;4404743;29;20065;-77
2022/05/09 05:43:29;;;;;;;3.42;1.67;;;;;;;;;;4395925;29;20044;-77
2022/05/09 05:45:39;;;;;;;4.17;1.77;;;;;;;;;;4404367;29;20040;-77
2022/05/09 05:47:51;;;;;;;3.23;1.40;;;;;;;;;;4403240;29;20847;-77
2022/05/09 05:50:04;;;;;;;3.53;1.33;;;;;;;;;;4404342;29;20646;-76
2022/05/09 05:52:15;;;;;;;2.45;1.38;;;;;;;;;;4404589;29;20067;-76
2022/05/09 05:54:28;;;;;;;2.97;1.30;;;;;;;;;;4403879;29;20611;-76
2022/05/09 05:56:38;;;;;;;2.70;1.27;;;;;;;;;;4403499;29;20033;-76
2022/05/09 05:58:48;;;;;;;2.70;1.00;;;;;;;;;;4403419;28;20137;-76
2022/05/09 06:00:59;;;;;;;3.27;1.03;;;;;;;;;;4403794;29;24782;-76
2022/05/09 06:03:09;;;;;;;2.50;1.20;;;;;;;;;;4394608;29;20033;-76
2022/05/09 06:05:20;;;;;;;1.60;1.00;;;;;;;;;;4411515;29;20100;-76
2022/05/09 06:07:31;;;;;;;1.00;0.80;;;;;;;;;;4402929;29;20036;-76
2022/05/09 06:09:44;;;;;;;1.45;0.77;;;;;;;;;;4386434;29;20033;-76
2022/05/09 06:11:54;;;;;;;2.80;1.00;;;;;;;;;;4405470;29;20047;-76
2022/05/09 06:14:06;;;;;;;2.37;0.93;;;;;;;;;;4403482;28;20154;-76
2022/05/09 06:16:16;;;;;;;3.30;0.93;;;;;;;;;;4405825;29;20235;-76
2022/05/09 06:18:27;;;;;;;2.17;1.33;;;;;;;;;;4410964;29;28405;-76
2022/05/09 06:20:39;;;;;;;1.73;1.03;;;;;;;;;;4403453;29;20048;-75
2022/05/09 06:22:50;;;;;;;2.75;0.90;;;;;;;;;;4400546;29;20039;-75
2022/05/09 06:25:01;;;;;;;2.00;0.82;;;;;;;;;;4404815;29;20044;-76
2022/05/09 06:27:11;;;;;;;1.23;0.80;;;;;;;;;;4406030;29;20581;-75
2022/05/09 06:29:23;;;;;;;2.40;1.33;;;;;;;;;;4403774;29;20358;-75
2022/05/09 06:31:34;;;;;;;3.60;1.00;;;;;;;;;;4405342;29;20123;-75
2022/05/09 06:33:45;;;;;;;1.27;0.90;;;;;;;;;;4406949;29;20092;-75
2022/05/09 06:35:55;;;;;;;2.60;1.00;;;;;;;;;;4406261;28;20055;-76
2022/05/09 06:38:06;;;;;;;2.90;1.13;;;;;;;;;;4404131;29;20480;-75
2022/05/09 06:40:17;;;;;;;2.08;1.20;;;;;;;;;;4406436;29;20037;-75
2022/05/09 06:42:28;;;;;;;2.28;1.08;;;;;;;;;;4406331;29;20965;-75
2022/05/09 06:44:38;;;;;;;3.20;1.07;;;;;;;;;;4407601;29;20052;-75
2022/05/09 06:46:48;;;;;;;1.97;1.00;;;;;;;;;;4406051;29;36427;-75
2022/05/09 06:48:59;;;;;;;1.43;1.00;;;;;;;;;;4407955;29;20618;-75
2022/05/09 06:51:09;;;;;;;2.30;1.07;;;;;;;;;;4407930;29;20352;-75
2022/05/09 06:53:20;;;;;;;3.20;1.20;;;;;;;;;;4406484;29;24798;-73
2022/05/09 06:55:31;;;;;;;3.17;1.37;;;;;;;;;;4406146;29;20040;-75
2022/05/09 06:57:43;;;;;;;2.63;1.17;;;;;;;;;;4406139;29;20075;-75
2022/05/09 06:59:53;;;;;;;2.55;1.10;;;;;;;;;;4405354;29;20040;-75
2022/05/09 07:02:04;;;;;;;2.53;1.17;;;;;;;;;;4405288;29;28489;-75
2022/05/09 07:04:15;;;;;;;2.77;1.17;;;;;;;;;;4405731;29;20550;-75
2022/05/09 07:06:25;;;;;;;2.33;1.20;;;;;;;;;;4406840;28;20036;-75
2022/05/09 07:08:37;;;;;;;3.03;1.40;;;;;;;;;;4406375;29;20653;-75
2022/05/09 07:10:48;;;;;;;1.00;0.70;;;;;;;;;;4407289;29;20032;-75
2022/05/09 07:12:59;;;;;;;1.67;0.90;;;;;;;;;;4406781;28;20040;-75
2022/05/09 07:15:12;;;;;;;3.22;1.10;;;;;;;;;;4406043;28;20051;-74
2022/05/09 07:17:23;;;;;;;2.53;1.05;;;;;;;;;;4405083;29;20044;-74
2022/05/09 07:19:33;;;;;;;2.73;1.20;;;;;;;;;;4406150;29;20032;-73
2022/05/09 07:21:44;;;;;;;3.43;1.00;;;;;;;;;;4407074;29;20493;-73
2022/05/09 07:23:54;;;;;;;2.13;1.03;;;;;;;;;;4403870;29;20049;-73
2022/05/09 07:26:06;;;;;;;2.40;1.08;;;;;;;;;;4403786;29;20076;-74
2022/05/09 07:28:19;;;;;;;3.27;1.13;;;;;;;;;;4405091;29;20124;-73
2022/05/09 07:30:30;;;;;;;2.72;1.10;;;;;;;;;;4404895;29;20195;-73
2022/05/09 07:32:41;;;;;;;2.30;0.90;;;;;;;;;;4406091;28;20048;-73
2022/05/09 07:34:52;;;;;;;2.35;0.82;;;;;;;;;;4405883;28;20080;-73
2022/05/09 07:37:02;;;;;;;2.17;1.10;;;;;;;;;;4403412;29;20529;-73
2022/05/09 07:39:13;;;;;;;4.43;1.13;;;;;;;;;;4406213;28;20050;-73
2022/05/09 07:41:23;;;;;;;4.00;1.27;;;;;;;;;;4404910;28;20092;-72
2022/05/09 07:43:34;;;;;;;3.00;0.90;;;;;;;;;;4405520;29;20040;-72
2022/05/09 07:45:45;;;;;;;1.70;1.00;;;;;;;;;;4407072;28;20097;-73
2022/05/09 07:47:55;;;;;;;2.58;0.90;;;;;;;;;;4406016;29;20035;-73
2022/05/09 07:50:07;;;;;;;1.83;0.90;;;;;;;;;;4405794;29;20048;-73
2022/05/09 07:52:19;;;;;;;2.20;1.00;;;;;;;;;;4403834;29;20046;-73
2022/05/09 07:54:29;;;;;;;2.07;0.90;;;;;;;;;;4405015;29;24954;-72
2022/05/09 07:56:40;;;;;;;2.43;1.00;;;;;;;;;;4406003;29;20119;-72
2022/05/09 07:58:51;;;;;;;3.33;1.20;;;;;;;;;;4407349;29;20080;-73
2022/05/09 08:01:02;;;;;;;2.07;0.93;;;;;;;;;;4405761;29;20155;-73
2022/05/09 08:03:15;;;;;;;1.60;0.98;;;;;;;;;;4403374;29;20530;-73
2022/05/09 08:05:25;;;;;;;2.78;0.90;;;;;;;;;;4405979;29;20083;-74
2022/05/09 08:07:38;;;;;;;2.60;1.00;;;;;;;;;;4405642;29;20084;-73
2022/05/09 08:09:49;;;;;;;3.00;1.10;;;;;;;;;;4419874;28;20044;-73
2022/05/09 08:12:00;;;;;;;3.87;1.30;;;;;;;;;;4404903;28;20052;-73
2022/05/09 08:14:11;;;;;;;3.72;1.20;;;;;;;;;;4405007;28;20064;-73
2022/05/09 08:16:25;;;;;;;2.55;0.95;;;;;;;;;;4406448;29;20127;-73
2022/05/09 08:18:36;;;;;;;2.75;0.80;;;;;;;;;;4403795;29;21022;-73
2022/05/09 08:20:47;;;;;;;2.87;1.13;;;;;;;;;;4403227;29;20032;-73
2022/05/09 08:22:59;;;;;;;2.22;1.00;;;;;;;;;;4403822;29;20044;-73
2022/05/09 08:25:11;;;;;;;3.03;0.90;;;;;;;;;;4404152;29;20036;-73
2022/05/09 08:27:21;;;;;;;3.25;0.77;;;;;;;;;;4404065;29;20637;-73
2022/05/09 08:29:31;;;;;;;1.80;0.90;;;;;;;;;;4403858;29;20063;-72
2022/05/09 08:31:42;;;;;;;2.47;0.93;;;;;;;;;;4403037;29;20043;-72
2022/05/09 08:33:53;;;;;;;1.43;0.90;;;;;;;;;;4403794;29;20337;-72
2022/05/09 08:36:07;;;;;;;2.33;0.90;;;;;;;;;;4404720;29;20040;-72
2022/05/09 08:38:19;;;;;;;1.55;0.90;;;;;;;;;;4405391;29;21713;-73
2022/05/09 08:40:43;;;;;;;4.30;1.60;;;;;;;;;;4409619;29;20044;-72
2022/05/09 08:43:11;;;;;;;3.05;1.08;;;;;;;;;;4411924;29;20044;-72
2022/05/09 08:45:29;;;;;;;1.00;0.80;;;;;;;;;;4419045;28;20036;-71
2022/05/09 08:48:13;;;;;;;3.83;1.23;;;;;;;;;;4412309;29;21201;-71
2022/05/09 08:50:42;;;;;;;3.28;1.10;;;;;;;;;;4400957;28;20056;-72
2022/05/09 08:53:23;;;;;;;2.65;1.40;;;;;;;;;;4403874;29;20036;-72
2022/05/09 08:55:38;;;;;;;3.13;1.00;;;;;;;;;;4412818;28;20044;-71
2022/05/09 08:57:56;;;;;;;2.17;1.10;;;;;;;;;;4411707;29;20044;-72
2022/05/09 09:00:10;;;;;;;2.58;1.15;;;;;;;;;;4417484;28;20040;-72
2022/05/09 09:02:44;;;;;;;3.17;1.10;;;;;;;;;;4404415;28;21326;-67
2022/05/09 09:04:56;;;;;;;2.35;1.10;;;;;;;;;;4412682;29;20653;-72
2022/05/09 09:07:32;;;;;;;3.60;1.25;;;;;;;;;;4403452;29;20339;-71
2022/05/09 09:09:57;;;;;;;2.25;0.93;;;;;;;;;;4402237;29;20135;-68
2022/05/09 09:12:26;;;;;;;1.77;1.00;;;;;;;;;;4390032;29;20093;-73
2022/05/09 09:15:09;;;;;;;2.00;1.00;;;;;;;;;;4404503;29;20047;-74
2022/05/09 09:17:35;;;;;;;3.22;1.20;;;;;;;;;;4412796;29;20151;-68
2022/05/09 09:20:03;;;;;;;2.90;1.10;;;;;;;;;;4402770;29;20040;-74
2022/05/09 09:22:38;;;;;;;2.78;1.10;;;;;;;;;;4411117;29;20079;-74
2022/05/09 09:25:39;;;;;;;3.00;1.65;;;;;;;;;;4403218;29;20043;-73
2022/05/09 09:27:54;;;;;;;3.00;1.10;;;;;;;;;;4378860;29;20048;-73
2022/05/09 09:30:11;;;;;;;2.20;1.15;;;;;;;;;;4396887;29;20589;-73
2022/05/09 09:32:23;;;;;;;2.08;1.02;;;;;;;;;;4395689;29;20099;-73
2022/05/09 09:34:36;;;;;;;;;;;;;;;;;;4397823;29;20048;-73
2022/05/09 09:37:05;;;;;;;2.63;1.10;;;;;;;;;;4381648;29;20647;-74
2022/05/09 09:39:19;;;;;;;2.38;1.27;;;;;;;;;;4396897;29;20057;-74
2022/05/09 09:41:33;;;;;;;4.75;1.40;;;;;;;;;;4398616;29;20235;-73
2022/05/09 09:43:45;;;;;;;2.38;0.98;;;;;;;;;;4397771;29;20520;-74
2022/05/09 09:46:03;;;;;;;;;;;;;;;;;;4398482;29;20044;-73
2022/05/09 09:48:20;;;;;;;2.63;1.23;;;;;;;;;;4382018;29;20389;-73
2022/05/09 09:50:31;;;;;;;3.05;1.20;;;;;;;;;;4398969;29;20096;-73
2022/05/09 09:52:56;;;;;;;3.17;1.10;;;;;;;;;;4397649;29;20135;-73
2022/05/09 09:55:30;;;;;;;3.40;1.23;;;;;;;;;;4380561;29;20075;-73
2022/05/09 09:57:41;;;;;;;3.85;1.00;;;;;;;;;;4398100;28;20104;-74
2022/05/09 09:59:51;;;;;;;2.33;1.20;;;;;;;;;;4405699;29;20547;-73
2022/05/09 10:02:24;;;;;;;2.53;1.10;;;;;;;;;;4406624;28;20313;-73
2022/05/09 10:04:36;;;;;;;2.30;1.33;;;;;;;;;;4397939;29;20036;-73
2022/05/09 10:06:59;;;;;;;1.80;1.20;;;;;;;;;;4406325;29;20032;-73
2022/05/09 10:09:19;;;;;;;1.55;1.10;;;;;;;;;;4414455;29;20044;-73
2022/05/09 10:11:31;;;;;;;2.45;1.27;;;;;;;;;;4406724;29;21188;-73
2022/05/09 10:13:48;;;;;;;2.13;1.10;;;;;;;;;;4404730;29;22297;-73
2022/05/09 10:16:12;;;;;;;2.05;1.10;;;;;;;;;;4406078;28;20037;-74
2022/05/09 10:18:31;;;;;;;3.53;1.30;;;;;;;;;;4394338;29;20041;-73
2022/05/09 10:20:41;;;;;;;2.33;1.08;;;;;;;;;;4414962;29;20135;-74
2022/05/09 10:25:23;;;;;;;2.63;1.13;;;;;;;;;;4407696;29;20040;-74
2022/05/09 10:27:34;;;;;;;1.92;1.08;;;;;;;;;;4404777;29;20680;-74
2022/05/09 10:29:45;;;;;;;2.08;1.17;;;;;;;;;;4420622;28;20992;-74
2022/05/09 10:32:00;;;;;;;2.80;1.20;;;;;;;;;;4407579;28;20687;-74
2022/05/09 10:34:19;;;;;;;1.88;1.20;;;;;;;;;;4414886;29;20064;-74
2022/05/09 10:36:37;;;;;;;3.63;1.52;;;;;;;;;;4406145;29;20044;-75
2022/05/09 10:38:54;;;;;;;2.58;1.40;;;;;;;;;;4420613;28;20074;-75
2022/05/09 10:41:12;;;;;;;2.65;1.30;;;;;;;;;;4420580;28;20115;-74
2022/05/09 10:43:33;;;;;;;2.20;1.00;;;;;;;;;;4406419;29;20044;-74
2022/05/09 10:45:48;;;;;;;3.80;1.20;;;;;;;;;;4406731;29;20067;-74
2022/05/09 10:48:08;;;;;;;2.50;1.13;;;;;;;;;;4407158;28;20323;-75
2022/05/09 10:50:32;;;;;;;2.20;1.20;;;;;;;;;;4405306;29;20040;-75
2022/05/09 10:52:49;;;;;;;4.57;1.52;;;;;;;;;;4412980;29;21033;-75
2022/05/09 10:55:08;;;;;;;2.53;1.30;;;;;;;;;;4404479;29;20035;-74
2022/05/09 10:57:29;;;;;;;3.88;1.30;;;;;;;;;;4413638;29;20616;-75
2022/05/09 10:59:41;;;;;;;1.65;1.10;;;;;;;;;;4413529;29;20107;-75
2022/05/09 11:02:17;;;;;;;1.92;1.17;;;;;;;;;;4410708;29;20632;-75
2022/05/09 11:04:32;;;;;;;2.58;1.30;;;;;;;;;;4405300;29;20089;-75
2022/05/09 11:07:03;;;;;;;3.00;1.17;;;;;;;;;;4404843;28;20044;-75
2022/05/09 11:09:26;;;;;;;2.15;1.05;;;;;;;;;;4406742;29;20047;-75
2022/05/09 11:12:03;;;;;;;3.83;1.30;;;;;;;;;;4405982;29;20731;-75
2022/05/09 11:14:37;;;;;;;2.40;1.40;;;;;;;;;;4405592;28;20123;-75
2022/05/09 11:16:50;;;;;;;1.63;1.20;;;;;;;;;;4407606;29;20081;-74
2022/05/09 11:19:19;;;;;;;2.67;1.45;;;;;;;;;;4404399;29;20052;-75
2022/05/09 11:21:55;;;;;;;2.55;1.10;;;;;;;;;;4406742;28;20688;-75
2022/05/09 11:24:29;;;;;;;3.08;1.42;;;;;;;;;;4404170;29;20035;-75
2022/05/09 11:27:25;;;;;;;2.60;1.35;;;;;;;;;;4405345;29;20233;-75
2022/05/09 11:29:45;;;;;;;1.95;1.30;;;;;;;;;;4391871;29;20056;-75
2022/05/09 11:32:06;;;;;;;3.03;1.38;;;;;;;;;;4406444;29;20040;-75
2022/05/09 11:34:38;;;;;;;3.25;1.33;;;;;;;;;;4404541;29;20785;-75
2022/05/09 11:36:59;;;;;;;2.05;1.38;;;;;;;;;;4403884;29;20036;-75
2022/05/09 11:39:13;;;;;;;;;;;;;;;;;;4407040;29;20492;-75
2022/05/09 11:41:45;;;;;;;2.97;1.60;;;;;;;;;;4405244;29;19919;-75
2022/05/09 11:44:16;;;;;;;1.65;1.05;;;;;;;;;;4407058;29;20043;-76
2022/05/09 11:46:42;;;;;;;2.05;1.23;;;;;;;;;;4404156;29;20060;-76
2022/05/09 11:49:14;;;;;;;2.55;1.15;;;;;;;;;;4404845;28;20112;-75
2022/05/09 11:51:41;;;;;;;;;;;;;;;;;;4406301;29;20033;-76
2022/05/09 11:54:05;;;;;;;2.78;1.25;;;;;;;;;;4389566;29;19967;-76
2022/05/09 11:56:15;;;;;;;3.17;1.50;;;;;;;;;;4412552;29;20040;-75
2022/05/09 11:58:28;;;;;;;3.20;1.40;;;;;;;;;;4412670;29;20044;-75
2022/05/09 12:00:38;;;;;;;2.28;1.40;;;;;;;;;;4407572;28;20040;-76
2022/05/09 12:03:15;;;;;;;2.83;1.40;;;;;;;;;;4405203;28;20044;-75
2022/05/09 12:05:26;;;;;;;2.20;1.30;;;;;;;;;;4403762;29;20112;-75
2022/05/09 12:07:39;;;;;;;2.53;1.40;;;;;;;;;;4411581;29;20084;-76
2022/05/09 12:10:01;;;;;;;2.08;1.15;;;;;;;;;;4418574;28;20032;-76
2022/05/09 12:12:37;;;;;;;2.22;1.50;;;;;;;;;;4404682;29;20036;-76
2022/05/09 12:14:50;;;;;;;2.22;1.40;;;;;;;;;;4404644;29;20052;-76
2022/05/09 12:17:01;;;;;;;2.47;1.40;;;;;;;;;;4405605;28;20031;-75
2022/05/09 12:19:30;;;;;;;4.03;1.50;;;;;;;;;;4403445;29;20486;-76
2022/05/09 12:21:41;;;;;;;2.15;1.30;;;;;;;;;;4404323;29;20043;-76
2022/05/09 12:24:20;;;;;;;1.88;1.17;;;;;;;;;;4404093;28;20494;-75
2022/05/09 12:26:32;;;;;;;3.53;1.58;;;;;;;;;;4404707;29;20036;-75
2022/05/09 12:28:46;;;;;;;2.83;1.48;;;;;;;;;;4405896;28;20039;-76
2022/05/09 12:31:04;;;;;;;2.40;1.20;;;;;;;;;;4404511;29;20037;-76
2022/05/09 12:33:18;;;;;;;3.20;1.20;;;;;;;;;;4405597;29;20074;-76
2022/05/09 12:35:28;;;;;;;2.20;1.30;;;;;;;;;;4405550;29;20076;-76
2022/05/09 12:37:45;;;;;;;2.03;1.20;;;;;;;;;;4404251;28;26752;-75
2022/05/09 12:39:55;;;;;;;3.03;1.33;;;;;;;;;;4403756;29;20054;-75
2022/05/09 12:42:21;;;;;;;2.47;1.30;;;;;;;;;;4405562;29;20039;-75
2022/05/09 12:44:35;;;;;;;1.95;1.23;;;;;;;;;;4403595;29;20044;-75
2022/05/09 12:46:56;;;;;;;3.72;1.77;;;;;;;;;;4417732;28;20154;-75
2022/05/09 12:49:08;;;;;;;3.13;1.48;;;;;;;;;;4404602;28;20040;-75
2022/05/09 12:51:19;;;;;;;2.22;1.40;;;;;;;;;;4404696;29;20043;-74
2022/05/09 12:53:32;;;;;;;2.77;1.23;;;;;;;;;;4403991;29;20043;-74
2022/05/09 12:55:57;;;;;;;3.42;1.70;;;;;;;;;;4401600;29;20036;-74
2022/05/09 12:58:33;;;;;;;2.40;1.20;;;;;;;;;;4404387;28;20068;-74
2022/05/09 13:00:43;;;;;;;2.88;1.50;;;;;;;;;;4402832;29;20040;-76
2022/05/09 13:02:54;;;;;;;2.30;1.33;;;;;;;;;;4403158;29;20029;-76
2022/05/09 13:05:05;;;;;;;3.53;1.30;;;;;;;;;;4404071;29;20044;-75
2022/05/09 13:07:16;;;;;;;2.45;1.27;;;;;;;;;;4405517;29;20155;-76
2022/05/09 13:09:34;;;;;;;2.65;1.17;;;;;;;;;;4403842;29;20036;-76
2022/05/09 13:11:53;;;;;;;1.38;1.05;;;;;;;;;;4394529;29;20045;-76
2022/05/09 13:14:07;;;;;;;2.25;1.40;;;;;;;;;;4405039;29;20030;-75
2022/05/09 13:16:22;;;;;;;1.75;1.30;;;;;;;;;;4405181;29;20048;-75
2022/05/09 13:18:32;;;;;;;3.75;1.50;;;;;;;;;;4411498;29;20036;-75
2022/05/09 13:20:58;;;;;;;2.43;1.23;;;;;;;;;;4395442;29;20036;-75
2022/05/09 13:23:10;;;;;;;2.00;1.40;;;;;;;;;;4412183;29;20362;-75
2022/05/09 13:25:33;;;;;;;2.63;1.35;;;;;;;;;;4403868;29;20032;-74
2022/05/09 13:27:52;;;;;;;3.00;1.50;;;;;;;;;;4404087;28;20047;-75
2022/05/09 13:30:06;;;;;;;2.85;1.50;;;;;;;;;;4406056;29;20032;-75
2022/05/09 13:32:30;;;;;;;2.83;1.42;;;;;;;;;;4403521;29;20040;-75
2022/05/09 13:34:44;;;;;;;2.60;1.30;;;;;;;;;;4403108;29;20036;-75
2022/05/09 13:36:55;;;;;;;4.10;1.65;;;;;;;;;;4405784;28;20636;-75
2022/05/09 13:39:07;;;;;;;2.38;1.40;;;;;;;;;;4403644;28;20091;-76
2022/05/09 13:41:24;;;;;;;1.77;1.48;;;;;;;;;;4403111;29;20048;-71
2022/05/09 13:43:40;;;;;;;1.98;1.33;;;;;;;;;;4406031;29;20085;-74